Time,TemperatureF,DewpointF,PressureIn,WindDirection,WindDirectionDegrees,WindSpeedMPH,WindSpeedGustMPH,Humidity,HourlyPrecipIn,Conditions,Clouds,dailyrainin,SoftwareType,DateUTC
2013-11-01 00:02:00,47.9,40.2,30.09,North,0,0.0,0.0,75,0.00,,,0.00,WUHU216HW,2013-11-01 07:02:00,
2013-11-01 00:07:00,47.9,40.2,30.09,North,0,0.0,0.0,75,0.00,,,0.00,WUHU216HW,2013-11-01 07:07:00,
2013-11-01 00:12:00,47.9,40.0,30.09,North,0,0.0,0.0,74,0.00,,,0.00,WUHU216HW,2013-11-01 07:12:00,
2013-11-01 00:17:00,47.7,39.4,30.09,North,0,0.0,0.0,73,0.00,,,0.00,WUHU216HW,2013-11-01 07:17:00,
2013-11-01 00:22:00,47.5,39.2,30.09,North,0,0.0,0.0,73,0.00,,,0.00,WUHU216HW,2013-11-01 07:22:00,
2013-11-01 00:27:00,47.2,39.0,30.09,North,0,0.0,0.0,73,0.00,,,0.00,WUHU216HW,2013-11-01 07:27:00,
2013-11-01 00:32:00,47.0,38.8,30.09,North,0,0.0,0.0,73,0.00,,,0.00,WUHU216HW,2013-11-01 07:32:00,
2013-11-01 00:37:00,46.8,38.6,30.09,North,0,0.0,0.0,73,0.00,,,0.00,WUHU216HW,2013-11-01 07:37:00,
2013-11-01 00:42:00,46.6,38.8,30.09,North,0,0.0,0.0,74,0.00,,,0.00,WUHU216HW,2013-11-01 07:42:00,
2013-11-01 00:47:00,46.6,38.8,30.09,North,0,0.0,0.0,74,0.00,,,0.00,WUHU216HW,2013-11-01 07:47:00,
2013-11-01 00:52:00,46.4,38.6,30.09,North,0,0.0,0.0,74,0.00,,,0.00,WUHU216HW,2013-11-01 07:52:00,
2013-11-01 00:57:00,46.4,38.6,30.09,North,0,0.0,0.0,74,0.00,,,0.00,WUHU216HW,2013-11-01 07:57:00,
2013-11-01 01:03:00,46.3,38.4,30.09,North,0,0.0,0.0,74,0.00,,,0.00,WUHU216HW,2013-11-01 08:03:00,
2013-11-01 01:08:00,46.1,38.3,30.09,North,0,0.0,0.0,74,0.00,,,0.00,WUHU216HW,2013-11-01 08:08:00,
2013-11-01 01:13:00,46.1,38.3,30.09,North,0,0.0,0.0,74,0.00,,,0.00,WUHU216HW,2013-11-01 08:13:00,
2013-11-01 01:18:00,46.1,38.3,30.10,North,0,0.0,0.0,74,0.00,,,0.00,WUHU216HW,2013-11-01 08:18:00,
2013-11-01 01:23:00,45.9,38.1,30.09,North,0,0.0,0.0,74,0.00,,,0.00,WUHU216HW,2013-11-01 08:23:00,
2013-11-01 01:28:00,45.7,38.3,30.09,North,0,0.0,0.0,75,0.00,,,0.00,WUHU216HW,2013-11-01 08:28:00,
2013-11-01 01:33:00,45.7,38.3,30.09,North,0,0.0,0.0,75,0.00,,,0.00,WUHU216HW,2013-11-01 08:33:00,
2013-11-01 01:38:00,45.7,38.3,30.09,North,0,0.0,0.0,75,0.00,,,0.00,WUHU216HW,2013-11-01 08:38:00,
2013-11-01 01:43:00,45.4,37.5,30.10,North,0,0.0,0.0,74,0.00,,,0.00,WUHU216HW,2013-11-01 08:43:00,
2013-11-01 01:48:00,45.4,37.5,30.10,North,0,0.0,0.0,74,0.00,,,0.00,WUHU216HW,2013-11-01 08:48:00,
2013-11-01 01:53:00,45.2,37.4,30.10,North,0,0.0,0.0,74,0.00,,,0.00,WUHU216HW,2013-11-01 08:53:00,
2013-11-01 01:58:00,45.0,37.2,30.10,North,0,0.0,0.0,74,0.00,,,0.00,WUHU216HW,2013-11-01 08:58:00,
2013-11-01 02:03:00,44.8,37.0,30.10,North,0,0.0,0.0,74,0.00,,,0.00,WUHU216HW,2013-11-01 09:03:00,
2013-11-01 02:08:00,44.6,36.8,30.10,North,0,0.0,0.0,74,0.00,,,0.00,WUHU216HW,2013-11-01 09:08:00,
2013-11-01 02:13:00,44.6,36.8,30.10,North,0,0.0,0.0,74,0.00,,,0.00,WUHU216HW,2013-11-01 09:13:00,
2013-11-01 02:18:00,44.6,37.2,30.09,North,0,0.0,0.0,75,0.00,,,0.00,WUHU216HW,2013-11-01 09:18:00,
2013-11-01 02:23:00,44.6,37.2,30.09,North,0,0.0,0.0,75,0.00,,,0.00,WUHU216HW,2013-11-01 09:23:00,
2013-11-01 02:28:00,44.6,37.2,30.09,North,0,0.0,0.0,75,0.00,,,0.00,WUHU216HW,2013-11-01 09:28:00,
2013-11-01 02:33:00,44.6,37.2,30.09,North,0,0.0,0.0,75,0.00,,,0.00,WUHU216HW,2013-11-01 09:33:00,
2013-11-01 02:38:00,44.6,37.2,30.09,North,0,0.0,0.0,75,0.00,,,0.00,WUHU216HW,2013-11-01 09:38:00,
2013-11-01 02:43:00,44.6,37.2,30.09,North,0,0.0,0.0,75,0.00,,,0.00,WUHU216HW,2013-11-01 09:43:00,
2013-11-01 02:48:00,44.5,37.0,30.09,North,0,0.0,0.0,75,0.00,,,0.00,WUHU216HW,2013-11-01 09:48:00,
2013-11-01 02:53:00,44.3,36.8,30.09,North,0,0.0,0.0,75,0.00,,,0.00,WUHU216HW,2013-11-01 09:53:00,
2013-11-01 02:58:00,44.3,36.8,30.09,North,0,0.0,0.0,75,0.00,,,0.00,WUHU216HW,2013-11-01 09:58:00,
2013-11-01 03:03:00,44.1,36.6,30.09,North,0,0.0,0.0,75,0.00,,,0.00,WUHU216HW,2013-11-01 10:03:00,
2013-11-01 03:08:00,43.7,36.3,30.08,North,0,0.0,0.0,75,0.00,,,0.00,WUHU216HW,2013-11-01 10:08:00,
2013-11-01 03:13:00,43.4,36.0,30.09,NNE,23,0.2,0.2,75,0.00,,,0.00,WUHU216HW,2013-11-01 10:13:00,
2013-11-01 03:18:00,43.4,36.3,30.09,North,0,0.0,0.0,76,0.00,,,0.00,WUHU216HW,2013-11-01 10:18:00,
2013-11-01 03:23:00,43.2,36.1,30.09,North,0,0.0,0.0,76,0.00,,,0.00,WUHU216HW,2013-11-01 10:23:00,
2013-11-01 03:28:00,43.2,36.1,30.09,North,0,0.0,0.0,76,0.00,,,0.00,WUHU216HW,2013-11-01 10:28:00,
2013-11-01 03:33:00,43.0,36.3,30.09,North,0,0.0,0.0,77,0.00,,,0.00,WUHU216HW,2013-11-01 10:33:00,
2013-11-01 03:38:00,42.8,36.1,30.08,North,0,0.0,0.0,77,0.00,,,0.00,WUHU216HW,2013-11-01 10:38:00,
2013-11-01 03:43:00,42.8,36.5,30.08,North,0,0.0,0.0,78,0.00,,,0.00,WUHU216HW,2013-11-01 10:43:00,
2013-11-01 03:48:00,42.8,36.5,30.08,North,0,0.0,0.0,78,0.00,,,0.00,WUHU216HW,2013-11-01 10:48:00,
2013-11-01 03:53:00,42.8,36.5,30.08,North,0,0.0,0.0,78,0.00,,,0.00,WUHU216HW,2013-11-01 10:53:00,
2013-11-01 03:58:00,43.0,36.9,30.08,North,0,0.0,0.0,79,0.00,,,0.00,WUHU216HW,2013-11-01 10:58:00,
2013-11-01 04:03:00,43.4,37.6,30.08,North,0,0.0,0.0,80,0.00,,,0.00,WUHU216HW,2013-11-01 11:03:00,
2013-11-01 04:08:00,43.6,37.8,30.08,North,0,0.0,0.0,80,0.00,,,0.00,WUHU216HW,2013-11-01 11:08:00,
2013-11-01 04:13:00,43.6,37.4,30.08,North,0,0.0,0.0,79,0.00,,,0.00,WUHU216HW,2013-11-01 11:13:00,
2013-11-01 04:18:00,43.6,37.4,30.08,North,0,0.0,0.0,79,0.00,,,0.00,WUHU216HW,2013-11-01 11:18:00,
2013-11-01 04:23:00,43.6,37.4,30.08,North,0,0.0,0.0,79,0.00,,,0.00,WUHU216HW,2013-11-01 11:23:00,
2013-11-01 04:28:00,43.7,37.6,30.08,North,0,0.0,0.0,79,0.00,,,0.00,WUHU216HW,2013-11-01 11:28:00,
2013-11-01 04:33:00,43.9,37.8,30.08,North,0,0.0,0.0,79,0.00,,,0.00,WUHU216HW,2013-11-01 11:33:00,
2013-11-01 04:38:00,43.7,37.4,30.08,North,0,0.0,0.0,78,0.00,,,0.00,WUHU216HW,2013-11-01 11:38:00,
2013-11-01 04:43:00,43.4,37.0,30.09,North,0,0.0,0.0,78,0.00,,,0.00,WUHU216HW,2013-11-01 11:43:00,
2013-11-01 04:48:00,43.2,36.8,30.09,North,0,0.0,0.0,78,0.00,,,0.00,WUHU216HW,2013-11-01 11:48:00,
2013-11-01 04:53:00,42.8,36.5,30.09,North,0,0.0,0.0,78,0.00,,,0.00,WUHU216HW,2013-11-01 11:53:00,
2013-11-01 04:58:00,42.7,36.3,30.09,North,0,0.0,0.0,78,0.00,,,0.00,WUHU216HW,2013-11-01 11:58:00,
2013-11-01 05:03:00,42.5,36.1,30.09,North,0,0.0,0.0,78,0.00,,,0.00,WUHU216HW,2013-11-01 12:03:00,
2013-11-01 05:08:00,42.3,35.9,30.09,North,0,0.0,0.0,78,0.00,,,0.00,WUHU216HW,2013-11-01 12:08:00,
2013-11-01 05:13:00,42.1,35.7,30.09,North,0,0.0,0.0,78,0.00,,,0.00,WUHU216HW,2013-11-01 12:13:00,
2013-11-01 05:18:00,42.1,35.7,30.09,North,0,0.0,0.0,78,0.00,,,0.00,WUHU216HW,2013-11-01 12:18:00,
2013-11-01 05:23:00,42.1,35.7,30.09,North,0,0.0,0.0,78,0.00,,,0.00,WUHU216HW,2013-11-01 12:23:00,
2013-11-01 05:28:00,42.1,36.0,30.09,North,0,0.0,0.0,79,0.00,,,0.00,WUHU216HW,2013-11-01 12:28:00,
2013-11-01 05:33:00,42.1,35.7,30.09,North,0,0.0,0.0,78,0.00,,,0.00,WUHU216HW,2013-11-01 12:33:00,
2013-11-01 05:38:00,42.1,35.7,30.09,North,0,0.0,0.0,78,0.00,,,0.00,WUHU216HW,2013-11-01 12:38:00,
2013-11-01 05:43:00,41.9,35.6,30.10,North,0,0.0,0.0,78,0.00,,,0.00,WUHU216HW,2013-11-01 12:43:00,
2013-11-01 05:48:00,41.8,35.4,30.09,North,0,0.0,0.0,78,0.00,,,0.00,WUHU216HW,2013-11-01 12:48:00,
2013-11-01 05:53:00,41.8,35.4,30.10,North,0,0.0,0.0,78,0.00,,,0.00,WUHU216HW,2013-11-01 12:53:00,
2013-11-01 05:58:00,41.8,35.4,30.10,North,0,0.0,0.0,78,0.00,,,0.00,WUHU216HW,2013-11-01 12:58:00,
2013-11-01 06:03:00,41.6,35.2,30.10,North,0,0.0,0.0,78,0.00,,,0.00,WUHU216HW,2013-11-01 13:03:00,
2013-11-01 06:08:00,41.6,35.2,30.10,North,0,0.0,0.0,78,0.00,,,0.00,WUHU216HW,2013-11-01 13:08:00,
2013-11-01 06:13:00,41.6,35.2,30.10,North,0,0.0,0.0,78,0.00,,,0.00,WUHU216HW,2013-11-01 13:13:00,
2013-11-01 06:18:00,41.4,35.0,30.10,North,0,0.0,0.0,78,0.00,,,0.00,WUHU216HW,2013-11-01 13:18:00,
2013-11-01 06:23:00,41.2,34.8,30.10,North,0,0.0,0.0,78,0.00,,,0.00,WUHU216HW,2013-11-01 13:23:00,
2013-11-01 06:28:00,41.0,34.7,30.10,North,0,0.0,0.0,78,0.00,,,0.00,WUHU216HW,2013-11-01 13:28:00,
2013-11-01 06:33:00,41.0,34.7,30.10,North,0,0.0,0.0,78,0.00,,,0.00,WUHU216HW,2013-11-01 13:33:00,
2013-11-01 06:38:00,41.2,35.1,30.10,North,0,0.0,0.0,79,0.00,,,0.00,WUHU216HW,2013-11-01 13:38:00,
2013-11-01 06:43:00,41.4,35.3,30.11,North,0,0.0,0.0,79,0.00,,,0.00,WUHU216HW,2013-11-01 13:43:00,
2013-11-01 06:48:00,41.4,35.3,30.11,North,0,0.0,0.0,79,0.00,,,0.00,WUHU216HW,2013-11-01 13:48:00,
2013-11-01 06:53:00,41.4,35.6,30.11,North,0,0.0,0.0,80,0.00,,,0.00,WUHU216HW,2013-11-01 13:53:00,
2013-11-01 06:58:00,41.4,35.6,30.11,North,0,0.0,0.0,80,0.00,,,0.00,WUHU216HW,2013-11-01 13:58:00,
2013-11-01 07:03:00,41.6,35.8,30.10,North,0,0.0,0.0,80,0.00,,,0.00,WUHU216HW,2013-11-01 14:03:00,
2013-11-01 07:08:00,41.4,35.3,30.11,North,0,0.0,0.0,79,0.00,,,0.00,WUHU216HW,2013-11-01 14:08:00,
2013-11-01 07:13:00,41.4,35.6,30.11,North,0,0.0,0.0,80,0.00,,,0.00,WUHU216HW,2013-11-01 14:13:00,
2013-11-01 07:18:00,41.4,35.6,30.11,North,0,0.0,0.0,80,0.00,,,0.00,WUHU216HW,2013-11-01 14:18:00,
2013-11-01 07:23:00,41.4,35.6,30.11,North,0,0.0,0.0,80,0.00,,,0.00,WUHU216HW,2013-11-01 14:23:00,
2013-11-01 07:28:00,41.2,35.5,30.11,North,0,0.0,0.0,80,0.00,,,0.00,WUHU216HW,2013-11-01 14:28:00,
2013-11-01 07:33:00,41.2,35.5,30.11,North,0,0.0,0.0,80,0.00,,,0.00,WUHU216HW,2013-11-01 14:33:00,
2013-11-01 07:38:00,41.0,35.3,30.11,North,0,0.0,0.0,80,0.00,,,0.00,WUHU216HW,2013-11-01 14:38:00,
2013-11-01 07:43:00,40.9,35.1,30.11,North,0,0.0,0.0,80,0.00,,,0.00,WUHU216HW,2013-11-01 14:43:00,
2013-11-01 07:48:00,40.9,35.5,30.12,North,0,0.0,0.0,81,0.00,,,0.00,WUHU216HW,2013-11-01 14:48:00,
2013-11-01 07:53:00,41.0,35.6,30.11,North,0,0.0,0.0,81,0.00,,,0.00,WUHU216HW,2013-11-01 14:53:00,
2013-11-01 07:58:00,41.4,35.9,30.12,NW,324,0.5,0.7,81,0.00,,,0.00,WUHU216HW,2013-11-01 14:58:00,
2013-11-01 08:03:00,41.8,36.6,30.12,WNW,293,0.6,0.9,82,0.00,,,0.00,WUHU216HW,2013-11-01 15:03:00,
2013-11-01 08:08:00,42.3,37.2,30.12,WNW,293,0.5,0.7,82,0.00,,,0.00,WUHU216HW,2013-11-01 15:08:00,
2013-11-01 08:13:00,42.8,38.0,30.12,WNW,293,0.6,0.9,83,0.00,,,0.00,WUHU216HW,2013-11-01 15:13:00,
2013-11-01 08:18:00,43.6,38.7,30.13,WNW,293,0.2,0.2,83,0.00,,,0.00,WUHU216HW,2013-11-01 15:18:00,
2013-11-01 08:23:00,44.6,40.2,30.13,NW,313,0.2,0.2,84,0.00,,,0.00,WUHU216HW,2013-11-01 15:23:00,
2013-11-01 08:28:00,45.7,41.5,30.12,NW,315,0.2,0.2,85,0.00,,,0.00,WUHU216HW,2013-11-01 15:28:00,
2013-11-01 08:33:00,46.8,42.6,30.12,NW,315,0.3,0.4,85,0.00,,,0.00,WUHU216HW,2013-11-01 15:33:00,
2013-11-01 08:38:00,47.9,42.9,30.13,NNW,327,0.4,0.7,83,0.00,,,0.00,WUHU216HW,2013-11-01 15:38:00,
2013-11-01 08:43:00,48.6,43.7,30.13,NW,315,0.7,1.1,83,0.00,,,0.00,WUHU216HW,2013-11-01 15:43:00,
2013-11-01 08:48:00,49.3,44.0,30.13,WNW,303,0.9,1.1,82,0.00,,,0.00,WUHU216HW,2013-11-01 15:48:00,
2013-11-01 08:53:00,50.2,44.9,30.13,NW,315,1.3,1.8,82,0.00,,,0.00,WUHU216HW,2013-11-01 15:53:00,
2013-11-01 08:58:00,51.1,45.5,30.13,NW,315,0.9,1.6,81,0.00,,,0.00,WUHU216HW,2013-11-01 15:58:00,
2013-11-01 09:03:00,52.0,46.1,30.13,NW,320,1.1,1.8,80,0.00,,,0.00,WUHU216HW,2013-11-01 16:03:00,
2013-11-01 09:08:00,52.9,46.6,30.13,NW,322,0.9,1.6,79,0.00,,,0.00,WUHU216HW,2013-11-01 16:08:00,
2013-11-01 09:13:00,54.0,47.4,30.13,NW,319,1.1,2.7,78,0.00,,,0.00,WUHU216HW,2013-11-01 16:13:00,
2013-11-01 09:18:00,54.7,47.6,30.13,NW,320,1.1,2.7,77,0.00,,,0.00,WUHU216HW,2013-11-01 16:18:00,
2013-11-01 09:23:00,55.4,47.3,30.13,NW,321,1.5,2.9,74,0.00,,,0.00,WUHU216HW,2013-11-01 16:23:00,
2013-11-01 09:28:00,56.3,47.4,30.13,NW,322,1.0,2.5,72,0.00,,,0.00,WUHU216HW,2013-11-01 16:28:00,
2013-11-01 09:33:00,57.1,47.0,30.13,NNW,330,0.8,1.8,69,0.00,,,0.00,WUHU216HW,2013-11-01 16:33:00,
2013-11-01 09:38:00,57.6,47.5,30.13,NW,321,1.0,2.2,69,0.00,,,0.00,WUHU216HW,2013-11-01 16:38:00,
2013-11-01 09:43:00,58.0,47.1,30.12,NW,314,1.5,2.5,67,0.00,,,0.00,WUHU216HW,2013-11-01 16:43:00,
2013-11-01 09:48:00,58.5,47.5,30.12,NW,323,1.3,3.4,67,0.00,,,0.00,WUHU216HW,2013-11-01 16:48:00,
2013-11-01 09:53:00,59.0,47.3,30.12,WNW,298,1.9,2.9,65,0.00,,,0.00,WUHU216HW,2013-11-01 16:53:00,
2013-11-01 09:58:00,59.4,47.2,30.12,WNW,298,1.5,2.5,64,0.00,,,0.00,WUHU216HW,2013-11-01 16:58:00,
2013-11-01 10:03:00,59.9,46.9,30.12,WNW,295,1.9,2.7,62,0.00,,,0.00,WUHU216HW,2013-11-01 17:03:00,
2013-11-01 10:08:00,60.3,47.3,30.12,WNW,302,2.1,3.1,62,0.00,,,0.00,WUHU216HW,2013-11-01 17:08:00,
2013-11-01 10:13:00,60.8,47.4,30.12,NW,312,1.9,2.7,61,0.00,,,0.00,WUHU216HW,2013-11-01 17:13:00,
2013-11-01 10:18:00,61.4,46.5,30.12,NW,319,1.6,3.4,58,0.00,,,0.00,WUHU216HW,2013-11-01 17:18:00,
2013-11-01 10:23:00,61.9,44.1,30.12,NW,321,1.2,2.5,52,0.00,,,0.00,WUHU216HW,2013-11-01 17:23:00,
2013-11-01 10:28:00,62.5,46.5,30.12,NNW,338,1.2,2.9,56,0.00,,,0.00,WUHU216HW,2013-11-01 17:28:00,
2013-11-01 10:33:00,63.0,47.0,30.12,NW,311,2.2,4.7,56,0.00,,,0.00,WUHU216HW,2013-11-01 17:33:00,
2013-11-01 10:38:00,63.4,45.4,30.12,NW,312,1.4,2.5,52,0.00,,,0.00,WUHU216HW,2013-11-01 17:38:00,
2013-11-01 10:43:00,63.7,46.2,30.12,NW,310,1.1,3.8,53,0.00,,,0.00,WUHU216HW,2013-11-01 17:43:00,
2013-11-01 10:48:00,64.3,46.6,30.12,NW,325,1.2,3.8,53,0.00,,,0.00,WUHU216HW,2013-11-01 17:48:00,
2013-11-01 10:53:00,64.6,46.5,30.11,WNW,303,1.6,3.6,52,0.00,,,0.00,WUHU216HW,2013-11-01 17:53:00,
2013-11-01 10:58:00,65.0,46.9,30.12,WNW,301,1.3,3.1,52,0.00,,,0.00,WUHU216HW,2013-11-01 17:58:00,
2013-11-01 11:03:00,65.2,46.1,30.12,WNW,283,2.0,3.8,50,0.00,,,0.00,WUHU216HW,2013-11-01 18:03:00,
2013-11-01 11:08:00,65.7,47.1,30.11,WNW,284,0.9,2.2,51,0.00,,,0.00,WUHU216HW,2013-11-01 18:08:00,
2013-11-01 11:13:00,66.2,46.5,30.12,NNW,330,0.8,1.8,49,0.00,,,0.00,WUHU216HW,2013-11-01 18:13:00,
2013-11-01 11:18:00,66.6,46.9,30.12,NW,315,1.4,3.6,49,0.00,,,0.00,WUHU216HW,2013-11-01 18:18:00,
2013-11-01 11:23:00,67.1,47.3,30.12,NW,314,1.0,3.1,49,0.00,,,0.00,WUHU216HW,2013-11-01 18:23:00,
2013-11-01 11:28:00,67.5,47.1,30.11,NW,308,1.5,3.4,48,0.00,,,0.00,WUHU216HW,2013-11-01 18:28:00,
2013-11-01 11:33:00,67.7,46.7,30.11,NW,318,1.0,2.9,47,0.00,,,0.00,WUHU216HW,2013-11-01 18:33:00,
2013-11-01 11:38:00,67.7,46.7,30.11,WNW,300,1.6,3.6,47,0.00,,,0.00,WUHU216HW,2013-11-01 18:38:00,
2013-11-01 11:43:00,68.2,47.2,30.11,NNW,330,1.6,4.0,47,0.00,,,0.00,WUHU216HW,2013-11-01 18:43:00,
2013-11-01 11:48:00,68.4,45.5,30.11,NW,308,2.1,3.4,44,0.00,,,0.00,WUHU216HW,2013-11-01 18:48:00,
2013-11-01 11:53:00,68.4,46.7,30.11,NW,320,1.3,2.9,46,0.00,,,0.00,WUHU216HW,2013-11-01 18:53:00,
2013-11-01 11:58:00,68.8,47.6,30.10,WNW,297,2.0,4.0,47,0.00,,,0.00,WUHU216HW,2013-11-01 18:58:00,
2013-11-01 12:03:00,69.1,48.0,30.10,WNW,290,1.2,2.2,47,0.00,,,0.00,WUHU216HW,2013-11-01 19:03:00,
2013-11-01 12:08:00,69.5,48.3,30.10,NNW,331,0.9,2.5,47,0.00,,,0.00,WUHU216HW,2013-11-01 19:08:00,
2013-11-01 12:13:00,70.2,47.2,30.10,NNW,335,0.9,1.8,44,0.00,,,0.00,WUHU216HW,2013-11-01 19:13:00,
2013-11-01 12:18:00,70.2,47.8,30.10,NW,319,1.2,2.5,45,0.00,,,0.00,WUHU216HW,2013-11-01 19:18:00,
2013-11-01 12:23:00,70.4,47.9,30.10,WNW,282,1.5,2.9,45,0.00,,,0.00,WUHU216HW,2013-11-01 19:23:00,
2013-11-01 12:28:00,71.1,48.6,30.09,WNW,283,2.0,3.4,45,0.00,,,0.00,WUHU216HW,2013-11-01 19:28:00,
2013-11-01 12:33:00,71.5,48.3,30.09,West,267,0.9,1.8,44,0.00,,,0.00,WUHU216HW,2013-11-01 19:33:00,
2013-11-01 12:38:00,71.6,48.4,30.09,NNW,340,1.1,3.6,44,0.00,,,0.00,WUHU216HW,2013-11-01 19:38:00,
2013-11-01 12:43:00,71.8,48.1,30.09,WNW,284,2.0,4.0,43,0.00,,,0.00,WUHU216HW,2013-11-01 19:43:00,
2013-11-01 12:48:00,72.0,48.2,30.08,WSW,256,2.1,3.8,43,0.00,,,0.00,WUHU216HW,2013-11-01 19:48:00,
2013-11-01 12:53:00,72.2,48.3,30.08,East,79,1.2,2.9,43,0.00,,,0.00,WUHU216HW,2013-11-01 19:53:00,
2013-11-01 12:58:00,72.4,48.5,30.08,South,189,1.9,3.4,43,0.00,,,0.00,WUHU216HW,2013-11-01 19:58:00,
2013-11-01 13:03:00,73.1,49.1,30.08,West,274,1.2,2.7,43,0.00,,,0.00,WUHU216HW,2013-11-01 20:03:00,
2013-11-01 13:08:00,72.9,47.8,30.07,West,260,1.6,2.9,41,0.00,,,0.00,WUHU216HW,2013-11-01 20:08:00,
2013-11-01 13:13:00,72.9,48.4,30.07,SSW,213,1.5,2.5,42,0.00,,,0.00,WUHU216HW,2013-11-01 20:13:00,
2013-11-01 13:18:00,73.1,48.0,30.06,NNW,343,1.1,4.0,41,0.00,,,0.00,WUHU216HW,2013-11-01 20:18:00,
2013-11-01 13:23:00,73.1,48.6,30.06,North,357,1.4,4.0,42,0.00,,,0.00,WUHU216HW,2013-11-01 20:23:00,
2013-11-01 13:28:00,73.1,48.0,30.06,WNW,301,1.6,4.5,41,0.00,,,0.00,WUHU216HW,2013-11-01 20:28:00,
2013-11-01 13:33:00,73.3,48.2,30.05,SSW,206,1.3,2.9,41,0.00,,,0.00,WUHU216HW,2013-11-01 20:33:00,
2013-11-01 13:38:00,73.6,48.4,30.05,SSW,210,1.2,2.5,41,0.00,,,0.00,WUHU216HW,2013-11-01 20:38:00,
2013-11-01 13:43:00,74.2,49.0,30.05,WSW,258,1.6,2.5,41,0.00,,,0.00,WUHU216HW,2013-11-01 20:43:00,
2013-11-01 13:48:00,74.5,47.9,30.05,NNW,342,1.3,4.0,39,0.00,,,0.00,WUHU216HW,2013-11-01 20:48:00,
2013-11-01 13:53:00,74.7,48.1,30.05,NNW,340,0.9,4.0,39,0.00,,,0.00,WUHU216HW,2013-11-01 20:53:00,
2013-11-01 13:59:00,74.9,49.0,30.05,SSW,209,1.3,2.9,40,0.00,,,0.00,WUHU216HW,2013-11-01 20:59:00,
2013-11-01 14:04:00,75.1,47.6,30.04,West,273,2.7,6.7,38,0.00,,,0.00,WUHU216HW,2013-11-01 21:04:00,
2013-11-01 14:09:00,75.2,47.8,30.04,West,276,2.3,4.0,38,0.00,,,0.00,WUHU216HW,2013-11-01 21:09:00,
2013-11-01 14:14:00,75.6,48.9,30.04,SSW,211,1.3,1.8,39,0.00,,,0.00,WUHU216HW,2013-11-01 21:14:00,
2013-11-01 14:19:00,75.4,48.0,30.03,SSW,195,1.2,3.1,38,0.00,,,0.00,WUHU216HW,2013-11-01 21:19:00,
2013-11-01 14:24:00,75.6,48.2,30.03,SW,230,1.0,2.5,38,0.00,,,0.00,WUHU216HW,2013-11-01 21:24:00,
2013-11-01 14:29:00,75.6,47.3,30.03,West,280,2.7,4.0,37,0.00,,,0.00,WUHU216HW,2013-11-01 21:29:00,
2013-11-01 14:34:00,76.0,47.7,30.03,NW,306,2.1,3.4,37,0.00,,,0.00,WUHU216HW,2013-11-01 21:34:00,
2013-11-01 14:39:00,76.0,48.4,30.02,North,357,1.0,2.7,38,0.00,,,0.00,WUHU216HW,2013-11-01 21:39:00,
2013-11-01 14:44:00,75.8,47.5,30.02,NW,312,1.0,2.2,37,0.00,,,0.00,WUHU216HW,2013-11-01 21:44:00,
2013-11-01 14:49:00,76.0,47.7,30.02,West,265,1.4,4.7,37,0.00,,,0.00,WUHU216HW,2013-11-01 21:49:00,
2013-11-01 14:54:00,76.0,47.7,30.02,WNW,294,1.5,3.4,37,0.00,,,0.00,WUHU216HW,2013-11-01 21:54:00,
2013-11-01 14:59:00,76.3,48.1,30.02,NW,319,1.7,4.0,37,0.00,,,0.00,WUHU216HW,2013-11-01 21:59:00,
2013-11-01 15:04:00,76.3,48.1,30.02,NW,305,2.7,4.0,37,0.00,,,0.00,WUHU216HW,2013-11-01 22:04:00,
2013-11-01 15:09:00,76.5,47.4,30.02,WNW,289,2.6,4.3,36,0.00,,,0.00,WUHU216HW,2013-11-01 22:09:00,
2013-11-01 15:14:00,76.7,46.8,30.02,West,272,1.8,3.6,35,0.00,,,0.00,WUHU216HW,2013-11-01 22:14:00,
2013-11-01 15:19:00,77.2,47.4,30.01,WNW,289,1.5,4.7,35,0.00,,,0.00,WUHU216HW,2013-11-01 22:19:00,
2013-11-01 15:24:00,77.2,46.5,30.02,WNW,285,3.4,4.7,34,0.00,,,0.00,WUHU216HW,2013-11-01 22:24:00,
2013-11-01 15:29:00,77.6,47.6,30.02,WNW,294,1.4,2.7,35,0.00,,,0.00,WUHU216HW,2013-11-01 22:29:00,
2013-11-01 15:34:00,77.4,46.7,30.01,NW,309,3.1,4.5,34,0.00,,,0.00,WUHU216HW,2013-11-01 22:34:00,
2013-11-01 15:39:00,77.4,46.7,30.01,WNW,286,2.9,4.5,34,0.00,,,0.00,WUHU216HW,2013-11-01 22:39:00,
2013-11-01 15:44:00,77.2,47.4,30.01,NNE,24,1.6,4.5,35,0.00,,,0.00,WUHU216HW,2013-11-01 22:44:00,
2013-11-01 15:49:00,77.4,46.7,30.00,West,276,2.3,4.0,34,0.00,,,0.00,WUHU216HW,2013-11-01 22:49:00,
2013-11-01 15:54:00,77.8,47.0,30.00,West,279,1.6,4.3,34,0.00,,,0.00,WUHU216HW,2013-11-01 22:54:00,
2013-11-01 15:59:00,77.4,45.2,30.00,NW,325,0.7,2.0,32,0.00,,,0.00,WUHU216HW,2013-11-01 22:59:00,
2013-11-01 16:04:00,77.0,45.6,30.00,NNW,344,2.0,3.8,33,0.00,,,0.00,WUHU216HW,2013-11-01 23:04:00,
2013-11-01 16:09:00,76.9,45.5,30.00,NW,307,2.6,4.7,33,0.00,,,0.00,WUHU216HW,2013-11-01 23:09:00,
2013-11-01 16:14:00,76.9,44.7,30.00,NW,312,3.3,4.5,32,0.00,,,0.00,WUHU216HW,2013-11-01 23:14:00,
2013-11-01 16:19:00,76.9,45.5,30.00,NW,313,1.9,3.4,33,0.00,,,0.00,WUHU216HW,2013-11-01 23:19:00,
2013-11-01 16:24:00,76.7,45.4,30.00,WNW,299,2.2,4.0,33,0.00,,,0.00,WUHU216HW,2013-11-01 23:24:00,
2013-11-01 16:29:00,76.7,44.6,29.99,NW,308,2.1,3.6,32,0.00,,,0.00,WUHU216HW,2013-11-01 23:29:00,
2013-11-01 16:34:00,76.7,45.4,29.99,WNW,300,2.0,3.1,33,0.00,,,0.00,WUHU216HW,2013-11-01 23:34:00,
2013-11-01 16:39:00,76.7,45.4,29.99,WNW,298,1.8,3.4,33,0.00,,,0.00,WUHU216HW,2013-11-01 23:39:00,
2013-11-01 16:44:00,76.7,46.1,29.99,NW,316,2.6,3.8,34,0.00,,,0.00,WUHU216HW,2013-11-01 23:44:00,
2013-11-01 16:49:00,76.7,46.1,29.99,WNW,288,1.7,2.2,34,0.00,,,0.00,WUHU216HW,2013-11-01 23:49:00,
2013-11-01 16:54:00,76.7,46.1,29.99,WNW,290,1.8,2.7,34,0.00,,,0.00,WUHU216HW,2013-11-01 23:54:00,
2013-11-01 16:59:00,76.3,44.3,29.99,NNW,330,0.7,1.1,32,0.00,,,0.00,WUHU216HW,2013-11-01 23:59:00,
2013-11-01 17:04:00,76.0,44.6,29.99,NNW,327,0.6,1.8,33,0.00,,,0.00,WUHU216HW,2013-11-02 00:04:00,
2013-11-01 17:09:00,75.6,44.4,29.99,NNW,333,0.5,1.6,33,0.00,,,0.00,WUHU216HW,2013-11-02 00:09:00,
2013-11-01 17:14:00,75.2,44.0,29.98,NNW,335,0.3,0.4,33,0.00,,,0.00,WUHU216HW,2013-11-02 00:14:00,
2013-11-01 17:19:00,74.9,44.5,29.98,NNW,331,0.4,0.7,34,0.00,,,0.00,WUHU216HW,2013-11-02 00:19:00,
2013-11-01 17:24:00,74.5,44.9,29.98,NNW,336,0.4,0.7,35,0.00,,,0.00,WUHU216HW,2013-11-02 00:24:00,
2013-11-01 17:29:00,74.2,45.4,29.98,WNW,300,0.6,1.3,36,0.00,,,0.00,WUHU216HW,2013-11-02 00:29:00,
2013-11-01 17:34:00,73.8,45.7,29.98,WNW,291,0.8,1.1,37,0.00,,,0.00,WUHU216HW,2013-11-02 00:34:00,
2013-11-01 17:39:00,73.6,46.4,29.98,NW,315,1.5,1.8,38,0.00,,,0.00,WUHU216HW,2013-11-02 00:39:00,
2013-11-01 17:44:00,73.3,46.0,29.98,NW,315,1.6,1.8,38,0.00,,,0.00,WUHU216HW,2013-11-02 00:44:00,
2013-11-01 17:49:00,72.9,46.4,29.98,NW,309,0.9,1.6,39,0.00,,,0.00,WUHU216HW,2013-11-02 00:49:00,
2013-11-01 17:54:00,72.4,46.7,29.98,WNW,293,0.2,0.2,40,0.00,,,0.00,WUHU216HW,2013-11-02 00:54:00,
2013-11-01 17:59:00,71.8,47.4,29.98,North,0,0.0,0.0,42,0.00,,,0.00,WUHU216HW,2013-11-02 00:59:00,
2013-11-01 18:04:00,71.1,47.3,29.98,North,0,0.0,0.0,43,0.00,,,0.00,WUHU216HW,2013-11-02 01:04:00,
2013-11-01 18:09:00,70.7,47.6,29.98,North,0,0.0,0.0,44,0.00,,,0.00,WUHU216HW,2013-11-02 01:09:00,
2013-11-01 18:14:00,70.0,47.0,29.98,North,0,0.0,0.0,44,0.00,,,0.00,WUHU216HW,2013-11-02 01:14:00,
2013-11-01 18:19:00,69.1,46.8,29.98,North,0,0.0,0.0,45,0.00,,,0.00,WUHU216HW,2013-11-02 01:19:00,
2013-11-01 18:24:00,68.2,46.0,29.98,North,0,0.0,0.0,45,0.00,,,0.00,WUHU216HW,2013-11-02 01:24:00,
2013-11-01 18:29:00,67.7,46.1,29.98,North,0,0.0,0.0,46,0.00,,,0.00,WUHU216HW,2013-11-02 01:29:00,
2013-11-01 18:34:00,67.1,45.6,29.98,North,0,0.0,0.0,46,0.00,,,0.00,WUHU216HW,2013-11-02 01:34:00,
2013-11-01 18:39:00,66.1,45.8,29.98,NW,315,0.2,0.2,48,0.00,,,0.00,WUHU216HW,2013-11-02 01:39:00,
2013-11-01 18:44:00,65.0,45.9,29.98,North,0,0.0,0.0,50,0.00,,,0.00,WUHU216HW,2013-11-02 01:44:00,
2013-11-01 18:49:00,64.3,45.7,29.98,North,0,0.0,0.0,51,0.00,,,0.00,WUHU216HW,2013-11-02 01:49:00,
2013-11-01 18:54:00,63.7,45.2,29.98,North,0,0.0,0.0,51,0.00,,,0.00,WUHU216HW,2013-11-02 01:54:00,
2013-11-01 18:59:00,63.4,44.9,29.98,North,0,0.0,0.0,51,0.00,,,0.00,WUHU216HW,2013-11-02 01:59:00,
2013-11-01 19:04:00,63.4,45.4,29.98,North,0,0.0,0.0,52,0.00,,,0.00,WUHU216HW,2013-11-02 02:04:00,
2013-11-01 19:09:00,63.2,45.2,29.98,North,0,0.0,0.0,52,0.00,,,0.00,WUHU216HW,2013-11-02 02:09:00,
2013-11-01 19:14:00,63.0,45.0,29.98,North,0,0.0,0.0,52,0.00,,,0.00,WUHU216HW,2013-11-02 02:14:00,
2013-11-01 19:20:00,62.6,44.7,29.98,North,0,0.0,0.0,52,0.00,,,0.00,WUHU216HW,2013-11-02 02:20:00,
2013-11-01 19:25:00,61.9,44.6,29.98,North,0,0.0,0.0,53,0.00,,,0.00,WUHU216HW,2013-11-02 02:25:00,
2013-11-01 19:30:00,60.8,45.0,29.98,North,0,0.0,0.0,56,0.00,,,0.00,WUHU216HW,2013-11-02 02:30:00,
2013-11-01 19:35:00,60.7,44.4,29.98,North,0,0.0,0.0,55,0.00,,,0.00,WUHU216HW,2013-11-02 02:35:00,
2013-11-01 19:40:00,60.5,44.7,29.98,North,0,0.0,0.0,56,0.00,,,0.00,WUHU216HW,2013-11-02 02:40:00,
2013-11-01 19:45:00,60.3,44.6,29.98,North,0,0.0,0.0,56,0.00,,,0.00,WUHU216HW,2013-11-02 02:45:00,
2013-11-01 19:50:00,59.9,44.6,29.98,North,0,0.0,0.0,57,0.00,,,0.00,WUHU216HW,2013-11-02 02:50:00,
2013-11-01 19:55:00,59.4,44.1,29.98,North,0,0.0,0.0,57,0.00,,,0.00,WUHU216HW,2013-11-02 02:55:00,
2013-11-01 20:00:00,58.9,44.1,29.98,North,0,0.0,0.0,58,0.00,,,0.00,WUHU216HW,2013-11-02 03:00:00,
2013-11-01 20:05:00,58.7,43.9,29.98,North,0,0.0,0.0,58,0.00,,,0.00,WUHU216HW,2013-11-02 03:05:00,
2013-11-01 20:10:00,58.3,43.6,29.98,North,0,0.7,1.1,58,0.00,,,0.00,WUHU216HW,2013-11-02 03:10:00,
2013-11-01 20:15:00,58.0,43.3,29.98,North,0,0.0,0.0,58,0.00,,,0.00,WUHU216HW,2013-11-02 03:15:00,
2013-11-01 20:20:00,57.6,43.4,29.98,North,0,0.0,0.0,59,0.00,,,0.00,WUHU216HW,2013-11-02 03:20:00,
2013-11-01 20:25:00,57.1,43.4,29.98,North,0,0.0,0.0,60,0.00,,,0.00,WUHU216HW,2013-11-02 03:25:00,
2013-11-01 20:30:00,56.9,43.2,29.98,North,0,0.0,0.0,60,0.00,,,0.00,WUHU216HW,2013-11-02 03:30:00,
2013-11-01 20:35:00,56.5,42.8,29.98,North,0,0.0,0.0,60,0.00,,,0.00,WUHU216HW,2013-11-02 03:35:00,
2013-11-01 20:40:00,56.3,42.7,29.98,North,0,0.0,0.0,60,0.00,,,0.00,WUHU216HW,2013-11-02 03:40:00,
2013-11-01 20:45:00,56.2,42.9,29.98,North,0,0.0,0.0,61,0.00,,,0.00,WUHU216HW,2013-11-02 03:45:00,
2013-11-01 20:50:00,55.8,42.6,29.98,North,0,0.0,0.0,61,0.00,,,0.00,WUHU216HW,2013-11-02 03:50:00,
2013-11-01 20:55:00,55.6,42.8,29.98,North,0,0.0,0.0,62,0.00,,,0.00,WUHU216HW,2013-11-02 03:55:00,
2013-11-01 21:00:00,55.3,42.4,29.98,North,0,0.0,0.0,62,0.00,,,0.00,WUHU216HW,2013-11-02 04:00:00,
2013-11-01 21:05:00,55.1,42.7,29.98,North,0,0.0,0.0,63,0.00,,,0.00,WUHU216HW,2013-11-02 04:05:00,
2013-11-01 21:10:00,55.1,43.1,29.98,SSW,204,0.6,1.1,64,0.00,,,0.00,WUHU216HW,2013-11-02 04:10:00,
2013-11-01 21:15:00,55.1,42.7,29.99,SW,233,0.6,1.1,63,0.00,,,0.00,WUHU216HW,2013-11-02 04:15:00,
2013-11-01 21:20:00,55.1,42.7,29.99,SSW,211,0.3,0.4,63,0.00,,,0.00,WUHU216HW,2013-11-02 04:20:00,
2013-11-01 21:25:00,54.9,42.5,29.98,SW,225,0.3,0.4,63,0.00,,,0.00,WUHU216HW,2013-11-02 04:25:00,
2013-11-01 21:30:00,54.7,42.3,29.99,North,0,0.0,0.0,63,0.00,,,0.00,WUHU216HW,2013-11-02 04:30:00,
2013-11-01 21:35:00,54.5,42.2,29.99,SE,135,0.2,0.2,63,0.00,,,0.00,WUHU216HW,2013-11-02 04:35:00,
2013-11-01 21:40:00,54.2,42.2,29.99,North,0,0.0,0.0,64,0.00,,,0.00,WUHU216HW,2013-11-02 04:40:00,
2013-11-01 21:45:00,53.8,41.9,29.99,North,0,0.0,0.0,64,0.00,,,0.00,WUHU216HW,2013-11-02 04:45:00,
2013-11-01 21:50:00,53.6,41.8,30.00,North,0,0.0,0.0,64,0.00,,,0.00,WUHU216HW,2013-11-02 04:50:00,
2013-11-01 21:55:00,53.5,41.6,30.00,North,0,0.0,0.0,64,0.00,,,0.00,WUHU216HW,2013-11-02 04:55:00,
2013-11-01 22:00:00,52.9,41.4,29.99,North,0,0.0,0.0,65,0.00,,,0.00,WUHU216HW,2013-11-02 05:00:00,
2013-11-01 22:05:00,52.4,41.0,29.99,NNE,23,0.2,0.2,65,0.00,,,0.00,WUHU216HW,2013-11-02 05:05:00,
2013-11-01 22:10:00,52.2,41.1,29.99,North,0,0.0,0.0,66,0.00,,,0.00,WUHU216HW,2013-11-02 05:10:00,
2013-11-01 22:15:00,51.8,41.2,29.99,North,0,0.0,0.0,67,0.00,,,0.00,WUHU216HW,2013-11-02 05:15:00,
2013-11-01 22:20:00,51.8,41.2,29.99,North,0,0.0,0.0,67,0.00,,,0.00,WUHU216HW,2013-11-02 05:20:00,
2013-11-01 22:25:00,51.8,41.2,29.99,North,0,0.0,0.0,67,0.00,,,0.00,WUHU216HW,2013-11-02 05:25:00,
2013-11-01 22:30:00,51.8,41.2,29.99,North,0,0.0,0.0,67,0.00,,,0.00,WUHU216HW,2013-11-02 05:30:00,
2013-11-01 22:35:00,51.5,41.3,29.99,North,0,0.4,0.4,68,0.00,,,0.00,WUHU216HW,2013-11-02 05:35:00,
2013-11-01 22:40:00,51.1,41.0,30.00,North,0,0.0,0.0,68,0.00,,,0.00,WUHU216HW,2013-11-02 05:40:00,
2013-11-01 22:45:00,50.9,40.8,30.00,North,0,0.0,0.0,68,0.00,,,0.00,WUHU216HW,2013-11-02 05:45:00,
2013-11-01 22:50:00,50.9,40.8,30.00,North,0,0.0,0.0,68,0.00,,,0.00,WUHU216HW,2013-11-02 05:50:00,
2013-11-01 22:55:00,50.8,40.6,30.00,North,0,0.0,0.0,68,0.00,,,0.00,WUHU216HW,2013-11-02 05:55:00,
2013-11-01 23:00:00,50.8,41.4,30.00,North,0,0.2,0.2,70,0.00,,,0.00,WUHU216HW,2013-11-02 06:00:00,
2013-11-01 23:05:00,50.8,41.4,30.00,North,0,0.0,0.0,70,0.00,,,0.00,WUHU216HW,2013-11-02 06:05:00,
2013-11-01 23:10:00,50.8,41.8,30.00,North,0,0.2,0.2,71,0.00,,,0.00,WUHU216HW,2013-11-02 06:10:00,
2013-11-01 23:15:00,50.8,41.8,30.00,North,0,0.0,0.0,71,0.00,,,0.00,WUHU216HW,2013-11-02 06:15:00,
2013-11-01 23:20:00,50.8,41.4,30.00,North,0,0.0,0.0,70,0.00,,,0.00,WUHU216HW,2013-11-02 06:20:00,
2013-11-01 23:25:00,50.6,41.2,30.00,North,0,0.0,0.0,70,0.00,,,0.00,WUHU216HW,2013-11-02 06:25:00,
2013-11-01 23:30:00,50.4,41.0,30.00,SE,135,0.7,0.7,70,0.00,,,0.00,WUHU216HW,2013-11-02 06:30:00,
2013-11-01 23:35:00,50.2,40.9,30.00,SE,135,0.3,0.7,70,0.00,,,0.00,WUHU216HW,2013-11-02 06:35:00,
2013-11-01 23:40:00,50.0,40.7,30.00,North,0,0.0,0.0,70,0.00,,,0.00,WUHU216HW,2013-11-02 06:40:00,
2013-11-01 23:45:00,50.0,40.7,29.99,WSW,248,0.4,0.4,70,0.00,,,0.00,WUHU216HW,2013-11-02 06:45:00,
2013-11-01 23:50:00,50.0,40.7,29.99,WSW,248,0.3,0.4,70,0.00,,,0.00,WUHU216HW,2013-11-02 06:50:00,
2013-11-01 23:55:00,49.9,40.5,30.00,North,0,0.0,0.0,70,0.00,,,0.00,WUHU216HW,2013-11-02 06:55:00,